Latest Weather Observations for Kingscote

IDS60801

Issued at 2:01 am CDT Wednesday 19 February 2020 (issued every 10 minutes, with the page automatically refreshed every 10 minutes)

About weather observations | Map of weather stations | Latest weather observations for SA | Other Formats
Station Details ID: 022841 Name: KINGSCOTE AERO Lat: -35.71 Lon: 137.52 Height: 6.23 m
Data from the previous 72 hours. | See also: Recent months at Kingscote
Date/Time
CDT
Temp
°C
App
Temp
°C
Dew
Point
°C
Rel
Hum
%
Delta-T
°C
Wind Press
QNH
hPa
Press
MSL
hPa
Rain since
9am
mm
Dir  Spd
km/h
Gust
km/h
Spd
kts
Gust
kts
19/02:00am 12.6 10.0 7.9 73 2.3 S 11 13 6 7 1018.5 1018.5 1.0
19/01:30am 13.4 10.5 8.3 71 2.5 S 13 17 7 9 1018.8 1018.8 1.0
19/01:00am 13.6 10.2 7.6 67 2.9 S 15 19 8 10 1018.7 1018.7 1.0
19/12:30am 14.0 10.2 7.5 65 3.2 S 17 20 9 11 1018.7 1018.7 1.0
19/12:00am 14.2 10.0 7.5 64 3.3 S 19 22 10 12 1018.6 1018.6 1.0
 
Date/Time
CDT
Temp
°C
App
Temp
°C
Dew
Point
°C
Rel
Hum
%
Delta-T
°C
Wind Press
QNH
hPa
Press
MSL
hPa
Rain since
9am
mm
Dir  Spd
km/h
Gust
km/h
Spd
kts
Gust
kts
18/11:30pm 15.0 9.9 7.5 61 3.7 S 24 32 13 17 1018.9 1018.9 1.0
18/11:00pm 15.2 11.2 8.4 64 3.4 S 19 26 10 14 1018.9 1018.9 1.0
18/10:30pm 14.9 10.5 7.5 61 3.6 S 20 28 11 15 1019.0 1019.0 1.0
18/10:00pm 15.4 9.5 7.4 59 4.0 SSW 28 35 15 19 1018.7 1018.7 1.0
18/09:30pm 15.3 9.8 7.6 60 3.8 S 26 35 14 19 1018.8 1018.8 1.0
18/09:00pm 15.2 10.1 7.7 61 3.7 S 24 33 13 18 1018.6 1018.6 1.0
18/08:30pm 15.6 9.7 7.6 59 4.0 SSW 28 41 15 22 1018.6 1018.6 1.0
18/08:00pm 15.8 9.2 7.6 58 4.1 S 32 43 17 23 1018.2 1018.2 1.0
18/07:30pm 16.5 9.3 7.7 56 4.4 S 35 46 19 25 1017.8 1017.8 1.0
18/07:00pm 17.4 9.5 7.7 53 4.9 SSW 39 52 21 28 1017.5 1017.5 1.0
18/06:31pm 17.9 11.1 7.6 51 5.2 S 33 54 18 29 1017.3 1017.3 1.0
18/06:30pm 18.9 12.4 8.3 50 5.5 S 32 44 17 24 1017.3 1017.3 1.0
18/06:00pm 18.3 10.5 8.3 52 5.1 SSW 39 59 21 32 1017.3 1017.3 1.0
18/05:56pm 18.1 10.5 8.9 55 4.8 SSW 39 59 21 32 1017.1 1017.1 1.0
18/05:30pm 18.6 10.4 8.3 51 5.3 SSW 41 52 22 28 1016.9 1016.9 1.0
18/05:03pm 20.1 12.3 9.7 51 5.6 SSW 41 59 22 32 1016.8 1016.8 1.0
18/05:00pm 19.8 11.4 8.8 49 5.8 SSW 43 59 23 32 1016.7 1016.7 1.0
18/04:30pm 19.3 10.8 8.6 50 5.6 SW 43 56 23 30 1016.3 1016.3 1.0
18/04:00pm 18.3 10.5 9.6 57 4.6 SSW 41 54 22 29 1016.2 1016.2 1.0
18/03:30pm 18.3 11.0 11.4 64 3.8 SSW 41 56 22 30 1016.2 1016.2 1.0
18/03:00pm 18.4 11.0 11.2 63 3.9 SSW 41 54 22 29 1016.1 1016.1 1.0
18/02:35pm 18.9 11.4 12.2 65 3.7 SSW 43 61 23 33 1015.9 1015.9 1.0
18/02:30pm 18.5 11.1 12.5 68 3.3 SSW 43 57 23 31 1015.9 1015.9 1.0
18/02:04pm 19.9 12.7 13.1 65 3.9 SSW 43 61 23 33 1015.7 1015.7 1.0
18/02:00pm 19.2 11.5 12.2 64 3.9 SSW 44 61 24 33 1015.7 1015.7 1.0
18/01:30pm 20.0 12.5 12.7 63 4.1 SSW 44 63 24 34 1015.5 1015.5 1.0
18/01:03pm 20.9 14.2 12.3 58 4.8 SSW 39 57 21 31 1015.8 1015.8 1.0
18/01:00pm 19.9 12.4 12.2 61 4.3 SSW 43 57 23 31 1015.8 1015.8 1.0
18/12:46pm 19.5 13.5 12.0 62 4.2 SSW 35 54 19 29 1015.9 1015.9 1.0
18/12:30pm 18.9 12.7 12.6 67 3.5 SSW 37 50 20 27 1016.0 1016.0 1.0
18/12:00pm 19.0 12.5 14.1 73 2.8 SSW 41 56 22 30 1015.8 1015.8 1.0
18/11:55am 18.4 12.4 13.3 72 2.9 SSW 37 56 20 30 1015.8 1015.8 1.0
18/11:30am 18.7 13.8 15.2 80 2.0 SSW 35 46 19 25 1015.7 1015.7 1.0
18/11:00am 18.2 13.9 15.5 84 1.6 SW 32 44 17 24 1015.4 1015.4 1.0
18/10:48am 18.4 14.3 13.7 74 2.7 SW 28 54 15 29 1015.4 1015.4 0.8
18/10:30am 18.5 13.7 14.0 75 2.6 SSW 32 39 17 21 1015.2 1015.2 0.8
18/10:00am 18.1 13.1 13.4 74 2.7 SW 32 41 17 22 1014.7 1014.7 0.8
18/09:30am 18.7 15.7 15.9 84 1.7 SSW 26 35 14 19 1014.4 1014.4 0.8
18/09:20am 17.7 14.8 15.0 84 1.6 SSW 24 41 13 22 1014.3 1014.3 0.8
18/09:10am 18.0 15.6 14.5 80 2.0 SW 20 35 11 19 1014.1 1014.1 0.0
18/09:00am 18.3 16.1 15.0 81 1.9 SW 20 28 11 15 1013.8 1013.8 0.0
18/08:30am 16.8 14.6 14.4 86 1.4 SW 19 28 10 15 1013.5 1013.5 0.0
18/08:00am 17.0 15.5 15.3 90 1.0 SW 17 22 9 12 1013.1 1013.1 0.0
18/07:30am 16.7 15.2 15.2 91 0.9 SSW 17 22 9 12 1012.5 1012.5 0.0
18/07:18am 16.6 14.5 15.1 91 0.9 SSW 20 24 11 13 1012.3 1012.3 0.0
18/07:08am 16.6 14.5 15.1 91 0.9 SW 20 24 11 13 1012.1 1012.1 0.0
18/07:00am 16.4 14.4 14.9 91 0.9 SW 19 24 10 13 1011.9 1011.9 0.0
18/06:53am 16.3 14.2 14.8 91 0.9 SW 19 24 10 13 1011.8 1011.8 0.0
18/06:35am 15.4 14.3 14.3 93 0.6 W 13 20 7 11 1011.5 1011.5 0.0
18/06:30am 15.3 14.9 14.2 93 0.6 WNW 9 15 5 8 1011.4 1011.4 0.0
18/06:00am 15.2 14.8 14.1 93 0.6 W 9 11 5 6 1011.2 1011.2 0.0
18/05:30am 15.1 14.2 13.6 91 0.8 WNW 11 15 6 8 1011.0 1011.0 0.0
18/05:00am 14.4 13.4 13.3 93 0.6 WNW 11 13 6 7 1010.9 1010.9 0.0
18/04:30am 13.9 12.2 12.3 90 0.9 W 13 15 7 8 1010.7 1010.7 0.0
18/04:00am 14.1 12.8 12.5 90 0.9 W 11 13 6 7 1010.6 1010.6 0.0
18/03:30am 14.5 12.9 12.9 90 0.9 WSW 13 15 7 8 1010.6 1010.6 0.0
18/03:00am 15.3 13.8 13.2 87 1.2 SW 13 20 7 11 1010.5 1010.5 0.0
18/02:30am 14.7 13.0 13.6 93 0.6 WSW 15 17 8 9 1010.9 1010.9 0.0
18/02:00am 14.7 13.6 13.1 90 0.9 SW 11 13 6 7 1010.4 1010.4 0.0
18/01:30am 15.7 14.6 14.2 91 0.9 SW 13 17 7 9 1010.8 1010.8 0.0
18/01:00am 16.2 14.8 14.6 90 0.9 SW 15 19 8 10 1010.8 1010.8 0.0
18/12:30am 16.8 16.7 15.0 89 1.0 SW 9 13 5 7 1010.7 1010.7 0.0
18/12:27am 16.8 16.3 14.8 88 1.2 SW 11 15 6 8 1010.8 1010.8 0.0
18/12:00am 17.3 16.2 15.3 88 1.2 SW 15 20 8 11 1011.1 1011.1 0.0
 
Date/Time
CDT
Temp
°C
App
Temp
°C
Dew
Point
°C
Rel
Hum
%
Delta-T
°C
Wind Press
QNH
hPa
Press
MSL
hPa
Rain since
9am
mm
Dir  Spd
km/h
Gust
km/h
Spd
kts
Gust
kts
17/11:54pm 17.2 16.5 15.4 89 1.1 SW 13 19 7 10 1011.2 1011.2 0.0
17/11:30pm 16.8 16.0 15.2 90 0.9 SW 13 15 7 8 1011.2 1011.2 0.0
17/11:00pm 16.9 16.9 15.1 89 1.0 SW 9 11 5 6 1011.1 1011.1 0.0
17/10:30pm 17.1 17.1 15.3 89 1.0 SSW 9 11 5 6 1011.1 1011.1 0.0
17/10:00pm 17.4 17.1 15.4 88 1.2 SSW 11 19 6 10 1011.2 1011.2 0.0
17/09:30pm 18.0 17.7 15.4 85 1.5 SSE 11 17 6 9 1010.6 1010.6 0.0
17/09:00pm 18.9 17.8 15.2 79 2.2 SE 15 20 8 11 1010.5 1010.5 0.0
17/08:30pm 19.0 17.7 14.7 76 2.5 S 15 20 8 11 1010.7 1010.7 0.0
17/08:00pm 19.5 18.9 14.5 73 2.9 S 11 15 6 8 1010.6 1010.6 0.0
17/07:30pm 20.1 19.5 14.7 71 3.2 SE 11 15 6 8 1009.7 1009.7 0.0
17/07:00pm 20.3 19.4 14.9 71 3.2 SE 13 19 7 10 1009.9 1009.9 0.0
17/06:30pm 21.1 18.1 14.7 67 3.8 ESE 24 28 13 15 1009.4 1009.4 0.0
17/06:00pm 23.3 21.1 14.8 59 5.1 SE 20 28 11 15 1010.5 1010.5 0.0
17/05:30pm 24.0 21.1 15.0 57 5.4 SSE 24 32 13 17 1011.0 1011.0 0.0
17/05:00pm 25.4 23.9 15.4 54 6.0 ESE 17 20 9 11 1010.8 1010.8 0.0
17/04:30pm 26.2 24.1 14.6 48 7.0 ESE 19 24 10 13 1010.5 1010.5 0.0
17/04:00pm 25.7 23.9 14.5 50 6.7 E 17 22 9 12 1010.9 1010.9 0.0
17/03:30pm 24.8 23.1 14.6 53 6.1 ENE 17 22 9 12 1011.0 1011.0 0.0
17/03:00pm 25.6 23.9 14.7 51 6.5 ENE 17 28 9 15 1011.2 1011.2 0.0
17/02:30pm 25.9 24.4 15.3 52 6.4 E 17 26 9 14 1011.3 1011.3 0.0
17/02:00pm 25.0 23.8 13.9 50 6.5 ENE 13 20 7 11 1011.7 1011.7 0.0
17/01:30pm 24.4 22.9 14.2 53 6.0 NE 15 20 8 11 1012.2 1012.2 0.0
17/01:00pm 24.5 23.1 14.6 54 5.9 E 15 20 8 11 1012.6 1012.6 0.0
17/12:30pm 24.5 23.7 14.0 52 6.2 E 11 20 6 11 1012.8 1012.8 0.0
17/12:00pm 24.3 23.6 14.4 54 5.9 SE 11 17 6 9 1012.9 1012.9 0.0
17/11:30am 23.2 22.3 13.7 55 5.5 ENE 11 19 6 10 1013.2 1013.2 0.0
17/11:00am 22.5 22.0 12.7 54 5.6 ESE 7 15 4 8 1013.4 1013.4 0.0
17/10:30am 21.4 20.0 13.3 60 4.6 ESE 13 19 7 10 1013.2 1013.2 0.0
17/10:00am 19.9 19.0 13.6 67 3.6 SE 11 17 6 9 1013.3 1013.3 0.0
17/09:30am 18.3 17.7 13.4 73 2.8 SSE 9 15 5 8 1013.5 1013.5 0.0
17/09:00am 17.8 18.8 13.3 75 2.5 CALM 0 0 0 0 1013.5 1013.5 0.0
17/08:30am 14.9 15.7 12.6 86 1.3 CALM 0 0 0 0 1013.5 1013.5 0.0
17/08:00am 13.3 13.9 12.0 92 0.7 CALM 0 0 0 0 1013.2 1013.2 0.0
17/07:30am 11.1 11.2 10.2 94 0.5 CALM 0 0 0 0 1013.2 1013.2 0.0
17/07:00am 10.4 10.3 9.3 93 0.5 CALM 0 6 0 3 1013.2 1013.2 0.0
17/06:30am 10.4 9.2 9.5 94 0.4 WSW 6 7 3 4 1013.0 1013.0 0.0
17/06:00am 10.6 9.8 9.7 94 0.5 SW 4 7 2 4 1012.5 1012.5 0.0
17/05:30am 10.2 8.7 9.3 94 0.4 WSW 7 9 4 5 1012.8 1012.8 0.0
17/05:00am 10.4 8.9 9.2 92 0.6 SW 7 9 4 5 1012.6 1012.6 0.0
17/04:30am 10.5 9.1 9.4 93 0.5 SSW 7 9 4 5 1012.5 1012.5 0.0
17/04:00am 10.6 9.2 9.5 93 0.6 SW 7 9 4 5 1012.5 1012.5 0.0
17/03:30am 10.8 9.4 9.7 93 0.6 SSW 7 7 4 4 1012.5 1012.5 0.0
17/03:00am 10.3 8.4 8.9 91 0.7 SSW 9 9 5 5 1012.7 1012.7 0.0
17/02:30am 10.8 9.9 9.4 91 0.7 S 4 6 2 3 1013.0 1013.0 0.0
17/02:00am 10.5 8.6 9.1 91 0.7 SW 9 9 5 5 1013.3 1013.3 0.0
17/01:30am 11.2 10.1 9.8 91 0.7 SW 6 7 3 4 1013.5 1013.5 0.0
17/01:00am 11.0 9.2 9.4 90 0.8 SW 9 11 5 6 1013.8 1013.8 0.0
17/12:30am 12.2 12.3 10.3 88 1.0 CALM 0 0 0 0 1013.6 1013.6 0.0
17/12:00am 11.9 10.6 10.1 89 0.9 SW 7 11 4 6 1014.1 1014.1 0.0
 
Date/Time
CDT
Temp
°C
App
Temp
°C
Dew
Point
°C
Rel
Hum
%
Delta-T
°C
Wind Press
QNH
hPa
Press
MSL
hPa
Rain since
9am
mm
Dir  Spd
km/h
Gust
km/h
Spd
kts
Gust
kts
16/11:30pm 11.9 9.9 10.0 88 1.0 WSW 11 13 6 7 1014.4 1014.4 0.0
16/11:00pm 12.8 12.6 10.3 85 1.3 SSW 2 7 1 4 1014.3 1014.3 0.0
16/10:30pm 13.8 12.9 10.6 81 1.7 SSE 6 7 3 4 1014.5 1014.5 0.0
16/10:00pm 14.6 13.6 11.0 79 1.9 SE 7 11 4 6 1014.5 1014.5 0.0
16/09:30pm 15.2 14.3 11.2 77 2.1 SSE 7 9 4 5 1014.6 1014.6 0.0
16/09:00pm 15.9 14.6 11.3 74 2.5 SE 9 13 5 7 1014.5 1014.5 0.0
16/08:30pm 16.6 14.5 11.3 71 2.9 SE 13 19 7 10 1014.4 1014.4 0.0
16/08:00pm 17.4 14.6 11.2 67 3.4 SE 17 24 9 13 1014.4 1014.4 0.0
16/07:30pm 18.3 14.9 11.4 64 3.8 SE 20 24 11 13 1014.3 1014.3 0.0
16/07:00pm 18.9 15.5 10.7 59 4.4 SSE 19 26 10 14 1014.0 1014.0 0.0
16/06:30pm 19.8 16.4 11.3 58 4.7 SE 20 28 11 15 1013.8 1013.8 0.0
16/06:00pm 20.3 16.5 11.0 55 5.1 SE 22 28 12 15 1013.8 1013.8 0.0
16/05:30pm 19.8 15.6 11.0 57 4.8 SE 24 30 13 16 1013.8 1013.8 0.0
16/05:00pm 21.3 17.2 11.3 53 5.5 SE 24 33 13 18 1013.9 1013.9 0.0
16/04:30pm 21.0 17.8 11.1 53 5.4 SE 19 30 10 16 1013.9 1013.9 0.0
16/04:00pm 20.9 17.1 11.3 54 5.3 SE 22 33 12 18 1014.0 1014.0 0.0
16/03:30pm 21.3 17.8 10.8 51 5.8 SE 20 30 11 16 1014.4 1014.4 0.0
16/03:00pm 21.4 17.6 11.1 52 5.7 SSE 22 33 12 18 1014.7 1014.7 0.0
16/02:30pm 20.7 17.1 10.5 52 5.5 SE 20 33 11 18 1015.1 1015.1 0.0
16/02:00pm 21.7 18.1 11.7 53 5.6 SE 22 33 12 18 1015.1 1015.1 0.0
16/01:30pm 21.2 18.3 11.0 52 5.6 SSE 17 26 9 14 1015.4 1015.4 0.0
16/01:00pm 20.8 17.4 11.4 55 5.2 SE 20 32 11 17 1015.8 1015.8 0.0
16/12:30pm 19.7 16.2 10.9 57 4.8 SSE 20 28 11 15 1016.2 1016.2 0.0
16/12:00pm 19.7 16.1 12.0 61 4.3 SE 22 32 12 17 1016.3 1016.3 0.0
16/11:30am 19.9 17.0 10.9 56 4.9 SSE 17 28 9 15 1016.2 1016.2 0.0
16/11:00am 19.5 15.9 10.0 54 5.1 SE 19 26 10 14 1016.1 1016.1 0.0
16/10:30am 19.0 15.5 10.3 57 4.7 SE 19 26 10 14 1016.2 1016.2 0.0
16/10:00am 18.5 15.1 11.3 63 3.9 SSE 20 26 11 14 1016.3 1016.3 0.0
16/09:30am 17.9 14.6 11.5 66 3.5 SE 20 26 11 14 1016.7 1016.7 0.0
16/09:00am 17.7 15.1 11.9 69 3.2 SSE 17 22 9 12 1016.6 1016.6 0.0
16/08:30am 16.7 15.6 12.0 74 2.6 SW 9 11 5 6 1016.3 1016.3 0.0
16/08:00am 16.5 15.0 11.9 74 2.5 SSE 11 13 6 7 1016.1 1016.1 0.0
16/07:30am 16.2 13.9 11.8 75 2.4 SE 15 20 8 11 1015.7 1015.7 0.0
16/07:00am 16.0 13.8 12.2 78 2.1 SE 15 17 8 9 1015.4 1015.4 0.0
16/06:30am 15.8 14.1 12.5 81 1.8 SSE 13 17 7 9 1015.2 1015.2 0.0
16/06:00am 16.0 14.0 12.7 81 1.8 SE 15 20 8 11 1015.1 1015.1 0.0
16/05:30am 16.3 14.1 12.1 76 2.3 SE 15 22 8 12 1014.8 1014.8 0.0
16/05:00am 16.6 13.5 12.2 75 2.4 SE 20 26 11 14 1014.6 1014.6 0.0
16/04:30am 16.8 14.0 11.5 71 2.9 SE 17 20 9 11 1014.7 1014.7 0.0
16/04:00am 16.9 14.5 11.4 70 3.0 SE 15 20 8 11 1014.7 1014.7 0.0
16/03:30am 16.9 14.6 11.8 72 2.8 SE 15 22 8 12 1014.7 1014.7 0.0
16/03:00am 16.8 14.6 10.9 68 3.2 SE 13 17 7 9 1015.0 1015.0 0.0
16/02:30am 17.1 13.7 11.2 68 3.2 SE 20 26 11 14 1015.1 1015.1 0.0

Other formats

Comma delimited format used in spreadsheet applications
http://www.bom.gov.au/fwo/IDS60801/IDS60801.95807.axf

JavaScript Object Notation format (JSON) in row-major order
http://www.bom.gov.au/fwo/IDS60801/IDS60801.95807.json

Data quality

Most of these data are generated automatically and are frequently updated. Quality checks on data are not normally performed. It is possible for incorrect values to appear. Refer to information at About Latest Weather Observations and please check the disclaimer before using these data.